Time;durP1;ratioP1;P1;durP2;ratioP2;P2;SDS_P1;SDS_P2;PMS_P1;PMS_P2;Temp;Humidity;BMP_temperature;BMP_pressure;BME280_temperature;BME280_humidity;BME280_pressure;Samples;Min_cycle;Max_cycle;Signal;HPM_P1;HPM_P2
2021/04/07 04:11:18;;;;;;;1.40;1.40;;;1.90;99.90;;;;;;5511775;23;20229;-74
2021/04/07 04:13:45;;;;;;;1.27;1.27;;;1.70;99.90;;;;;;4955945;29;20685;-75
2021/04/07 04:16:12;;;;;;;1.40;1.40;;;1.70;99.90;;;;;;4955557;29;20236;-74
2021/04/07 04:18:39;;;;;;;1.40;1.40;;;1.80;99.90;;;;;;4955607;29;20201;-74
2021/04/07 04:21:07;;;;;;;1.33;1.33;;;1.70;99.90;;;;;;4948124;29;20226;-74
2021/04/07 04:23:34;;;;;;;1.27;1.27;;;1.90;99.90;;;;;;4936601;29;20206;-75
2021/04/07 04:26:01;;;;;;;1.40;1.40;;;1.70;99.90;;;;;;4936812;29;20198;-75
2021/04/07 04:28:29;;;;;;;1.40;1.40;;;1.70;99.90;;;;;;4936403;29;20230;-73
2021/04/07 04:30:55;;;;;;;1.70;1.70;;;2.20;99.90;;;;;;4936122;29;20281;-73
2021/04/07 04:33:23;;;;;;;1.27;1.27;;;2.10;99.90;;;;;;4936109;29;20206;-73
2021/04/07 04:35:50;;;;;;;1.30;1.30;;;2.00;99.90;;;;;;4936111;29;20305;-73
2021/04/07 04:38:19;;;;;;;1.53;1.53;;;1.80;99.90;;;;;;4936376;29;20284;-74
2021/04/07 04:40:45;;;;;;;1.40;1.40;;;1.80;99.90;;;;;;4936013;29;20225;-74
2021/04/07 04:43:12;;;;;;;1.50;1.50;;;1.90;99.90;;;;;;4936217;29;20214;-74
2021/04/07 04:45:40;;;;;;;1.50;1.50;;;1.70;99.90;;;;;;4935735;29;20205;-74
2021/04/07 04:48:08;;;;;;;1.40;1.40;;;1.80;99.90;;;;;;4936148;29;20264;-74
2021/04/07 04:50:35;;;;;;;1.30;1.30;;;1.90;99.90;;;;;;4935862;29;20767;-74
2021/04/07 04:53:02;;;;;;;1.30;1.30;;;1.90;99.90;;;;;;4935957;29;20210;-74
2021/04/07 04:55:29;;;;;;;1.20;1.20;;;1.50;99.90;;;;;;4935799;29;20225;-74
2021/04/07 04:57:56;;;;;;;1.40;1.40;;;2.10;99.90;;;;;;4939180;29;20202;-74
2021/04/07 05:00:23;;;;;;;1.30;1.30;;;2.30;99.90;;;;;;4936482;29;20201;-74
2021/04/07 05:02:51;;;;;;;1.60;1.60;;;1.70;99.90;;;;;;4939010;29;20269;-74
2021/04/07 05:05:18;;;;;;;1.43;1.43;;;2.00;99.90;;;;;;4938855;29;20734;-74
2021/04/07 05:07:45;;;;;;;1.37;1.37;;;1.80;99.90;;;;;;4933316;29;20636;-74
2021/04/07 05:10:12;;;;;;;1.60;1.60;;;1.80;99.90;;;;;;4934565;29;20283;-73
2021/04/07 05:12:39;;;;;;;1.30;1.30;;;1.70;99.90;;;;;;4934537;29;20203;-74
2021/04/07 05:15:07;;;;;;;1.20;1.20;;;1.90;99.90;;;;;;4934714;29;20257;-74
2021/04/07 05:17:36;;;;;;;1.17;1.17;;;1.80;99.90;;;;;;4934579;29;20693;-74
2021/04/07 05:20:06;;;;;;;1.57;1.57;;;1.70;99.90;;;;;;4934766;29;20210;-74
2021/04/07 05:22:34;;;;;;;1.43;1.43;;;1.90;99.90;;;;;;4934474;29;20643;-74
2021/04/07 05:25:00;;;;;;;1.30;1.30;;;2.00;99.90;;;;;;4934427;29;20679;-74
2021/04/07 05:27:27;;;;;;;1.60;1.60;;;1.90;99.90;;;;;;4934330;29;20206;-74
2021/04/07 05:29:54;;;;;;;1.53;1.53;;;2.20;99.90;;;;;;4934925;29;20242;-74
2021/04/07 05:32:21;;;;;;;1.33;1.33;;;2.40;99.90;;;;;;4934472;29;20880;-74
2021/04/07 05:34:48;;;;;;;1.43;1.43;;;2.50;99.90;;;;;;4934515;29;20276;-74
2021/04/07 05:37:16;;;;;;;1.50;1.50;;;2.30;99.90;;;;;;4934425;29;20284;-74
2021/04/07 05:39:43;;;;;;;1.10;1.10;;;2.30;99.90;;;;;;4934385;29;20206;-74
2021/04/07 05:42:10;;;;;;;1.47;1.47;;;2.30;99.90;;;;;;4934001;29;20234;-74
2021/04/07 05:44:37;;;;;;;1.43;1.43;;;2.40;99.90;;;;;;4934194;29;20218;-74
2021/04/07 05:47:04;;;;;;;1.43;1.43;;;2.30;99.90;;;;;;4934074;29;20269;-74
2021/04/07 05:49:31;;;;;;;1.50;1.50;;;2.20;99.90;;;;;;4934286;29;20242;-74
2021/04/07 05:51:58;;;;;;;1.13;1.13;;;2.30;99.90;;;;;;4934142;29;20221;-74
2021/04/07 05:54:26;;;;;;;1.30;1.30;;;2.50;99.90;;;;;;4933905;29;20213;-74
2021/04/07 05:56:53;;;;;;;1.50;1.50;;;2.60;99.90;;;;;;4934058;29;20206;-74
2021/04/07 05:59:20;;;;;;;1.37;1.37;;;2.40;99.90;;;;;;4934248;29;20210;-74
2021/04/07 06:01:47;;;;;;;1.57;1.57;;;2.40;99.90;;;;;;4934460;29;20282;-73
2021/04/07 06:04:15;;;;;;;1.40;1.40;;;2.30;99.90;;;;;;4934132;29;20244;-74
2021/04/07 06:06:42;;;;;;;1.33;1.33;;;2.40;99.90;;;;;;4934106;29;20585;-73
2021/04/07 06:09:09;;;;;;;1.30;1.30;;;2.40;99.90;;;;;;4933811;29;20202;-74
2021/04/07 06:11:37;;;;;;;1.50;1.50;;;2.40;99.90;;;;;;4933681;29;20785;-74
2021/04/07 06:14:04;;;;;;;1.50;1.50;;;2.50;99.90;;;;;;4934068;29;20597;-73
2021/04/07 06:16:31;;;;;;;1.27;1.27;;;2.70;99.90;;;;;;4933605;29;20699;-73
2021/04/07 06:18:59;;;;;;;1.50;1.50;;;2.60;99.90;;;;;;4934424;29;20206;-73
2021/04/07 06:21:26;;;;;;;1.70;1.70;;;2.70;99.90;;;;;;4937738;29;20225;-73
2021/04/07 06:23:53;;;;;;;1.57;1.57;;;2.70;99.90;;;;;;4938062;29;20268;-73
2021/04/07 06:26:20;;;;;;;1.30;1.30;;;2.70;99.90;;;;;;4937535;29;20734;-73
2021/04/07 06:28:47;;;;;;;1.33;1.33;;;3.00;99.90;;;;;;4937546;29;20210;-73
2021/04/07 06:31:15;;;;;;;1.50;1.50;;;2.80;99.90;;;;;;4937674;29;20226;-73
2021/04/07 06:33:42;;;;;;;1.40;1.40;;;2.50;99.90;;;;;;4937583;29;20702;-73
2021/04/07 06:36:09;;;;;;;1.30;1.30;;;2.70;99.90;;;;;;4937227;29;20656;-73
2021/04/07 06:38:38;;;;;;;1.10;1.10;;;2.90;99.90;;;;;;4937435;29;20213;-73
2021/04/07 06:41:07;;;;;;;1.27;1.27;;;2.80;99.90;;;;;;4937480;29;20221;-73
2021/04/07 06:43:34;;;;;;;1.30;1.30;;;2.70;99.90;;;;;;4937382;29;20210;-73
2021/04/07 06:46:04;;;;;;;1.40;1.40;;;2.70;99.90;;;;;;4937275;29;20214;-73
2021/04/07 06:48:31;;;;;;;1.30;1.30;;;2.70;99.90;;;;;;4937330;29;20211;-73
2021/04/07 06:50:59;;;;;;;1.37;1.37;;;3.00;99.90;;;;;;4937621;29;20230;-73
2021/04/07 06:53:28;;;;;;;1.70;1.70;;;2.70;99.90;;;;;;4937552;29;20206;-73
2021/04/07 06:55:55;;;;;;;1.40;1.40;;;3.00;99.90;;;;;;4937626;29;20244;-73
2021/04/07 06:58:23;;;;;;;1.17;1.17;;;2.80;99.90;;;;;;4937622;29;20214;-74
2021/04/07 07:00:50;;;;;;;1.33;1.33;;;2.80;99.90;;;;;;4937625;29;20230;-74
2021/04/07 07:03:19;;;;;;;1.43;1.43;;;2.70;99.90;;;;;;4937243;29;20206;-74
2021/04/07 07:05:48;;;;;;;1.40;1.40;;;2.50;99.90;;;;;;4937225;29;20213;-74
2021/04/07 07:08:20;;;;;;;1.40;1.40;;;2.60;99.90;;;;;;4937464;29;20208;-74
2021/04/07 07:10:49;;;;;;;1.20;1.20;;;2.70;99.90;;;;;;4936922;29;20723;-74
2021/04/07 07:13:18;;;;;;;1.60;1.60;;;2.80;99.90;;;;;;4937023;29;20211;-74
2021/04/07 07:15:45;;;;;;;1.20;1.20;;;2.70;99.90;;;;;;4936929;29;20226;-74
2021/04/07 07:18:20;;;;;;;1.60;1.60;;;2.80;99.90;;;;;;4936770;29;20206;-74
2021/04/07 07:20:48;;;;;;;1.50;1.50;;;2.80;99.90;;;;;;4936937;29;20234;-74
2021/04/07 07:23:22;;;;;;;1.27;1.27;;;2.80;99.90;;;;;;4937406;29;20218;-74
2021/04/07 07:26:01;;;;;;;1.40;1.40;;;2.80;99.90;;;;;;4936722;29;20644;-74
2021/04/07 07:28:38;;;;;;;1.37;1.37;;;2.80;99.90;;;;;;4936951;29;20249;-73
2021/04/07 07:31:16;;;;;;;1.30;1.30;;;3.00;99.90;;;;;;4936872;29;20233;-73
2021/04/07 07:33:44;;;;;;;1.40;1.40;;;3.10;99.90;;;;;;4936760;29;20288;-73
2021/04/07 07:36:12;;;;;;;1.80;1.80;;;3.30;99.90;;;;;;4936441;29;20222;-75
2021/04/07 07:38:45;;;;;;;1.43;1.43;;;3.10;99.90;;;;;;4936738;29;20210;-75
2021/04/07 07:41:12;;;;;;;1.40;1.40;;;3.40;99.90;;;;;;4936666;29;20226;-75
2021/04/07 07:43:41;;;;;;;1.23;1.23;;;3.30;99.90;;;;;;4936699;29;20202;-74
2021/04/07 07:46:11;;;;;;;1.30;1.30;;;3.20;99.90;;;;;;4936251;29;20214;-74
2021/04/07 07:48:39;;;;;;;1.20;1.20;;;3.40;99.90;;;;;;4936306;29;20240;-74
2021/04/07 07:51:16;;;;;;;1.60;1.60;;;3.30;99.90;;;;;;4936321;29;20233;-73
2021/04/07 07:53:45;;;;;;;1.30;1.30;;;3.10;99.90;;;;;;4936491;29;20217;-73
2021/04/07 07:56:13;;;;;;;1.40;1.40;;;2.90;99.90;;;;;;4936015;29;20298;-73
2021/04/07 07:58:44;;;;;;;1.70;1.70;;;3.10;99.90;;;;;;4936410;29;20222;-73
2021/04/07 08:01:14;;;;;;;1.30;1.30;;;3.10;99.90;;;;;;4936191;29;20312;-73
2021/04/07 08:03:41;;;;;;;1.30;1.30;;;3.30;99.90;;;;;;4935939;29;20224;-74
2021/04/07 08:06:08;;;;;;;1.40;1.40;;;3.20;99.90;;;;;;4936043;29;20202;-74
2021/04/07 08:08:47;;;;;;;1.20;1.20;;;3.10;99.90;;;;;;4935933;29;20301;-74
2021/04/07 08:11:15;;;;;;;1.30;1.30;;;3.30;99.90;;;;;;4936010;29;20233;-74
2021/04/07 08:13:45;;;;;;;1.10;1.10;;;3.30;99.90;;;;;;4935924;29;20715;-74
2021/04/07 08:16:15;;;;;;;1.20;1.20;;;3.50;99.90;;;;;;4935579;29;20221;-74
2021/04/07 08:18:45;;;;;;;1.40;1.40;;;4.60;99.90;;;;;;4936018;29;20213;-74
2021/04/07 08:21:14;;;;;;;1.40;1.40;;;3.70;99.90;;;;;;4935808;29;20233;-74
2021/04/07 08:23:42;;;;;;;1.27;1.27;;;3.90;99.90;;;;;;4935449;29;20625;-74
2021/04/07 08:26:11;;;;;;;1.40;1.40;;;4.00;99.90;;;;;;4935667;29;20202;-74
2021/04/07 08:28:40;;;;;;;1.13;1.13;;;4.20;99.90;;;;;;4935335;29;20301;-74
2021/04/07 08:31:12;;;;;;;1.37;1.37;;;4.30;99.90;;;;;;4935583;29;20230;-74
2021/04/07 08:33:43;;;;;;;1.30;1.30;;;3.50;99.90;;;;;;4935631;29;20260;-75
2021/04/07 08:36:10;;;;;;;1.30;1.30;;;3.90;99.90;;;;;;4935282;29;20226;-74
2021/04/07 08:38:37;;;;;;;1.30;1.30;;;4.20;99.90;;;;;;4935306;29;20210;-74
2021/04/07 08:41:08;;;;;;;1.40;1.40;;;4.10;99.90;;;;;;4935217;29;20258;-74
2021/04/07 08:43:37;;;;;;;1.30;1.30;;;4.10;99.90;;;;;;4934784;29;20205;-74
2021/04/07 08:46:12;;;;;;;1.20;1.20;;;4.30;99.90;;;;;;4935331;29;20253;-75
2021/04/07 08:48:39;;;;;;;1.60;1.60;;;4.10;99.90;;;;;;4935365;29;20551;-74
2021/04/07 08:51:09;;;;;;;1.10;1.10;;;4.20;99.90;;;;;;4935179;29;20226;-74
2021/04/07 08:53:40;;;;;;;1.20;1.20;;;4.00;99.90;;;;;;4935179;29;20206;-74
2021/04/07 08:56:09;;;;;;;1.53;1.53;;;4.20;99.90;;;;;;4934747;29;20699;-73
2021/04/07 08:58:49;;;;;;;1.20;1.20;;;3.90;99.90;;;;;;4935141;29;20210;-74
2021/04/07 09:01:20;;;;;;;1.50;1.50;;;3.90;99.90;;;;;;4934803;29;20605;-73
2021/04/07 09:03:47;;;;;;;1.30;1.30;;;4.00;99.90;;;;;;4934911;29;20652;-74
2021/04/07 09:06:14;;;;;;;1.50;1.50;;;3.90;99.90;;;;;;4935024;29;20198;-74
2021/04/07 09:08:53;;;;;;;1.50;1.50;;;3.80;99.90;;;;;;4934758;29;20209;-74
2021/04/07 09:11:36;;;;;;;1.10;1.10;;;4.10;99.90;;;;;;4934827;29;20284;-74
2021/04/07 09:14:05;;;;;;;1.40;1.40;;;4.00;99.90;;;;;;4934956;29;20206;-74
2021/04/07 09:16:38;;;;;;;1.40;1.40;;;4.10;99.90;;;;;;4934421;29;20229;-74
2021/04/07 09:19:13;;;;;;;1.40;1.40;;;4.20;99.90;;;;;;4935268;29;20206;-75
2021/04/07 09:21:51;;;;;;;1.30;1.30;;;4.20;99.90;;;;;;4934709;29;20221;-74
2021/04/07 09:24:19;;;;;;;1.50;1.50;;;4.20;99.90;;;;;;4934669;29;20630;-74
2021/04/07 09:26:47;;;;;;;1.10;1.10;;;4.30;99.90;;;;;;4934471;29;20253;-74
2021/04/07 09:29:16;;;;;;;1.50;1.50;;;4.40;99.90;;;;;;4934454;29;20284;-74
2021/04/07 09:31:45;;;;;;;1.50;1.50;;;4.50;99.90;;;;;;4934717;29;20280;-74
2021/04/07 09:34:13;;;;;;;1.10;1.10;;;4.50;99.90;;;;;;4934936;29;20202;-74
2021/04/07 09:36:43;;;;;;;1.20;1.20;;;4.60;99.90;;;;;;4934073;29;20642;-74
2021/04/07 09:39:11;;;;;;;1.33;1.33;;;4.70;99.90;;;;;;4934387;29;20307;-74
2021/04/07 09:41:40;;;;;;;1.47;1.47;;;5.00;99.90;;;;;;4934123;29;20230;-74
2021/04/07 09:44:08;;;;;;;1.40;1.40;;;5.30;99.90;;;;;;4934253;29;20694;-74
2021/04/07 09:46:36;;;;;;;1.23;1.23;;;5.10;99.90;;;;;;4934210;29;20643;-74
2021/04/07 09:49:06;;;;;;;1.23;1.23;;;5.10;99.90;;;;;;4934312;29;20363;-74
2021/04/07 09:51:34;;;;;;;1.30;1.30;;;5.10;99.90;;;;;;4934317;29;20606;-74
2021/04/07 09:54:10;;;;;;;1.40;1.40;;;4.90;99.90;;;;;;4934375;29;20212;-75
2021/04/07 09:56:55;;;;;;;1.40;1.40;;;5.30;99.90;;;;;;4934278;29;20300;-74
2021/04/07 09:59:33;;;;;;;1.40;1.40;;;5.40;99.90;;;;;;4935243;29;20257;-74
2021/04/07 10:02:01;;;;;;;1.30;1.30;;;5.50;99.90;;;;;;4934412;29;20221;-74
2021/04/07 10:04:29;;;;;;;1.43;1.43;;;5.50;99.90;;;;;;4934336;29;20206;-75
2021/04/07 10:06:56;;;;;;;1.10;1.10;;;5.50;99.90;;;;;;4934226;29;20206;-74
2021/04/07 10:09:28;;;;;;;1.07;1.07;;;5.10;99.90;;;;;;4933935;29;20213;-74
2021/04/07 10:11:55;;;;;;;1.43;1.43;;;5.10;99.90;;;;;;4933812;29;20735;-74
2021/04/07 10:14:22;;;;;;;1.30;1.30;;;5.30;99.90;;;;;;4934056;29;20206;-74
2021/04/07 10:16:49;;;;;;;1.40;1.40;;;5.50;99.90;;;;;;4933642;29;20273;-74
2021/04/07 10:19:17;;;;;;;1.50;1.50;;;5.50;99.90;;;;;;4933897;29;20209;-74
2021/04/07 10:21:45;;;;;;;1.40;1.40;;;5.50;99.90;;;;;;4934055;29;20226;-74
2021/04/07 10:24:16;;;;;;;1.30;1.30;;;5.60;99.90;;;;;;4934017;29;20257;-74
2021/04/07 10:26:44;;;;;;;1.37;1.37;;;5.60;99.90;;;;;;4934561;23;20231;-74
2021/04/07 10:29:22;;;;;;;1.20;1.20;;;5.40;99.90;;;;;;4914982;29;20616;-74
2021/04/07 10:31:52;;;;;;;1.30;1.30;;;5.20;99.90;;;;;;4914558;29;20372;-73
2021/04/07 10:34:29;;;;;;;1.40;1.40;;;5.00;99.90;;;;;;4915279;29;20214;-73
2021/04/07 10:36:56;;;;;;;1.40;1.40;;;5.10;99.90;;;;;;4899635;29;20263;-73
2021/04/07 10:39:23;;;;;;;1.40;1.40;;;;;;;;;;4896025;29;20602;-74
2021/04/07 10:41:52;;;;;;;1.20;1.20;;;5.70;98.90;;;;;;4895773;29;20215;-74
2021/04/07 10:44:24;;;;;;;1.20;1.20;;;5.80;99.10;;;;;;4896266;29;20287;-73
2021/04/07 10:46:51;;;;;;;1.10;1.10;;;6.00;98.40;;;;;;4895883;29;20220;-74
2021/04/07 10:49:19;;;;;;;1.27;1.27;;;5.70;97.90;;;;;;4895852;29;20259;-74
2021/04/07 10:51:57;;;;;;;1.20;1.20;;;5.90;97.90;;;;;;4895656;29;20271;-74
2021/04/07 10:54:25;;;;;;;1.20;1.20;;;5.80;97.50;;;;;;4895761;29;20214;-74
2021/04/07 10:56:59;;;;;;;1.23;1.23;;;6.00;98.30;;;;;;4895499;29;20232;-74
2021/04/07 10:59:30;;;;;;;1.10;1.10;;;6.20;99.10;;;;;;4895934;29;20216;-74
2021/04/07 11:01:58;;;;;;;1.30;1.30;;;6.10;97.90;;;;;;4895524;29;20756;-74
2021/04/07 11:04:33;;;;;;;1.23;1.23;;;6.00;97.20;;;;;;4895641;29;20213;-74
2021/04/07 11:07:02;;;;;;;1.23;1.23;;;6.00;97.60;;;;;;4898340;29;20776;-74
2021/04/07 11:09:32;;;;;;;1.03;1.03;;;6.30;96.20;;;;;;4899412;29;20263;-74
2021/04/07 11:12:00;;;;;;;1.40;1.40;;;6.30;95.50;;;;;;4899323;29;20211;-74
2021/04/07 11:14:27;;;;;;;1.20;1.20;;;6.30;95.20;;;;;;4898981;29;20691;-74
2021/04/07 11:16:57;;;;;;;1.30;1.30;;;6.20;95.70;;;;;;4898676;29;20287;-74
2021/04/07 11:19:34;;;;;;;1.10;1.10;;;6.20;94.70;;;;;;4898849;29;20219;-74
2021/04/07 11:22:01;;;;;;;1.53;1.53;;;6.10;93.70;;;;;;4898810;29;20632;-74
2021/04/07 11:24:28;;;;;;;1.50;1.50;;;5.90;94.00;;;;;;4899080;29;20470;-74
2021/04/07 11:26:56;;;;;;;1.27;1.27;;;5.80;94.50;;;;;;4898330;29;20683;-74
2021/04/07 11:29:23;;;;;;;1.20;1.20;;;5.60;94.60;;;;;;4898705;29;20207;-73
2021/04/07 11:31:53;;;;;;;1.37;1.37;;;5.50;95.40;;;;;;4898785;29;20203;-73
2021/04/07 11:34:24;;;;;;;1.37;1.37;;;5.30;96.20;;;;;;4899066;29;20216;-73
2021/04/07 11:37:03;;;;;;;1.20;1.20;;;5.40;95.60;;;;;;4898164;29;20693;-74
2021/04/07 11:39:35;;;;;;;1.30;1.30;;;5.30;95.70;;;;;;4899108;29;20619;-73
2021/04/07 11:42:11;;;;;;;1.20;1.20;;;5.30;95.00;;;;;;4898634;29;20242;-73
2021/04/07 11:44:38;;;;;;;1.10;1.10;;;5.60;93.70;;;;;;4898973;29;20214;-74
2021/04/07 11:47:05;;;;;;;1.30;1.30;;;5.70;93.60;;;;;;4898162;29;20227;-74
2021/04/07 11:49:35;;;;;;;1.20;1.20;;;5.80;94.10;;;;;;4898210;29;20579;-74
2021/04/07 11:52:03;;;;;;;1.10;1.10;;;5.80;94.00;;;;;;4898204;29;20218;-73
2021/04/07 11:54:30;;;;;;;1.50;1.50;;;6.10;94.90;;;;;;4898797;29;20267;-73
2021/04/07 11:56:57;;;;;;;1.30;1.30;;;6.00;94.20;;;;;;4897779;29;20250;-73
2021/04/07 11:59:25;;;;;;;1.20;1.20;;;6.10;93.40;;;;;;4898416;29;20203;-74
2021/04/07 12:01:55;;;;;;;1.40;1.40;;;6.20;93.80;;;;;;4898227;29;20212;-74
2021/04/07 12:04:25;;;;;;;1.10;1.10;;;6.10;93.40;;;;;;4898477;29;20715;-74
2021/04/07 12:06:52;;;;;;;1.20;1.20;;;6.10;93.10;;;;;;4898064;29;20223;-74
2021/04/07 12:09:20;;;;;;;1.30;1.30;;;6.10;93.60;;;;;;4898392;29;20283;-74
2021/04/07 12:11:47;;;;;;;1.33;1.33;;;6.10;93.90;;;;;;4897782;29;20215;-74
2021/04/07 12:14:14;;;;;;;1.20;1.20;;;6.20;93.80;;;;;;4898021;29;20207;-74
2021/04/07 12:16:41;;;;;;;1.23;1.23;;;6.30;92.90;;;;;;4896589;29;20765;-73
2021/04/07 12:19:10;;;;;;;1.20;1.20;;;6.40;92.00;;;;;;4897829;29;20295;-74
2021/04/07 12:21:38;;;;;;;1.20;1.20;;;6.50;91.40;;;;;;4897524;29;20278;-73
2021/04/07 12:24:05;;;;;;;1.23;1.23;;;6.80;91.50;;;;;;4897713;29;20218;-74
2021/04/07 12:26:33;;;;;;;1.50;1.50;;;7.10;88.80;;;;;;4897618;29;20251;-74
2021/04/07 12:29:00;;;;;;;1.50;1.50;;;7.10;86.20;;;;;;4897838;29;20207;-73
2021/04/07 12:31:27;;;;;;;1.27;1.27;;;7.00;88.00;;;;;;4897455;29;20207;-74
2021/04/07 12:33:54;;;;;;;1.37;1.37;;;7.20;87.70;;;;;;4897382;29;20672;-73
2021/04/07 12:36:23;;;;;;;1.20;1.20;;;7.40;82.80;;;;;;4897105;29;20235;-74
2021/04/07 12:38:50;;;;;;;1.30;1.30;;;7.30;83.10;;;;;;4897590;29;20460;-74
2021/04/07 12:41:23;;;;;;;1.10;1.10;;;7.20;82.50;;;;;;4897609;29;20255;-74
2021/04/07 12:43:51;;;;;;;1.20;1.20;;;7.00;81.80;;;;;;4897338;29;20254;-74
2021/04/07 12:46:18;;;;;;;1.07;1.07;;;7.10;82.00;;;;;;4897119;29;20234;-75
2021/04/07 12:48:47;;;;;;;1.40;1.40;;;7.10;83.30;;;;;;4897223;29;20203;-74
2021/04/07 12:51:16;;;;;;;1.57;1.57;;;7.10;82.50;;;;;;4897100;29;20222;-74
2021/04/07 12:53:42;;;;;;;1.17;1.17;;;7.20;79.70;;;;;;4896871;29;20211;-74
2021/04/07 12:56:14;;;;;;;1.20;1.20;;;7.10;78.60;;;;;;4896742;29;20685;-74
2021/04/07 12:58:41;;;;;;;1.20;1.20;;;6.90;80.00;;;;;;4897076;29;20628;-74
2021/04/07 13:01:10;;;;;;;1.20;1.20;;;6.80;79.70;;;;;;4897041;29;20207;-73
2021/04/07 13:03:37;;;;;;;1.20;1.20;;;6.70;79.30;;;;;;4896719;29;20673;-73
2021/04/07 13:06:04;;;;;;;1.30;1.30;;;6.80;80.70;;;;;;4896830;29;20223;-73
2021/04/07 13:08:32;;;;;;;1.40;1.40;;;6.80;80.50;;;;;;4897059;29;20207;-73
2021/04/07 13:10:59;;;;;;;1.20;1.20;;;7.00;78.90;;;;;;4897133;29;20263;-74
2021/04/07 13:13:25;;;;;;;1.03;1.03;;;7.00;79.20;;;;;;4896742;29;20267;-74
2021/04/07 13:15:53;;;;;;;1.10;1.10;;;7.30;76.30;;;;;;4896469;29;20279;-74
2021/04/07 13:18:22;;;;;;;1.27;1.27;;;7.20;76.90;;;;;;4896879;29;20263;-74
2021/04/07 13:20:50;;;;;;;1.33;1.33;;;7.50;78.20;;;;;;4897133;29;20234;-73
2021/04/07 13:23:17;;;;;;;1.00;1.00;;;7.60;76.90;;;;;;4896682;29;20211;-74
2021/04/07 13:25:44;;;;;;;1.10;1.10;;;7.60;75.00;;;;;;4896416;29;20291;-74
2021/04/07 13:28:27;;;;;;;0.93;0.93;;;7.60;75.40;;;;;;4896105;29;20215;-74
2021/04/07 13:31:02;;;;;;;1.10;1.10;;;7.40;75.30;;;;;;4896889;29;20211;-74
2021/04/07 13:33:35;;;;;;;1.13;1.13;;;7.10;75.90;;;;;;4896292;29;20211;-74
2021/04/07 13:36:07;;;;;;;1.00;1.00;;;7.30;76.80;;;;;;4896488;29;20310;-74
2021/04/07 13:38:40;;;;;;;1.20;1.20;;;7.30;75.90;;;;;;4896367;29;20208;-74
2021/04/07 13:44:00;;;;;;;1.17;1.17;;;7.90;72.00;;;;;;4891115;29;20677;-74
2021/04/07 13:46:28;;;;;;;1.07;1.07;;;8.40;71.70;;;;;;4896193;29;20227;-74
2021/04/07 13:48:56;;;;;;;1.10;1.10;;;8.00;67.70;;;;;;4896046;29;20587;-74
2021/04/07 13:51:24;;;;;;;1.10;1.10;;;7.80;67.90;;;;;;4896289;29;20212;-73
2021/04/07 13:53:51;;;;;;;1.20;1.20;;;7.50;69.20;;;;;;4896157;29;20204;-74
2021/04/07 13:56:21;;;;;;;1.10;1.10;;;7.50;70.60;;;;;;4895883;29;20231;-73
2021/04/07 13:58:48;;;;;;;1.30;1.30;;;7.70;70.90;;;;;;4896250;29;20374;-74
2021/04/07 14:01:15;;;;;;;1.17;1.17;;;8.00;70.70;;;;;;4896252;29;20680;-74
2021/04/07 14:03:42;;;;;;;1.03;1.03;;;8.00;72.90;;;;;;4896331;29;20203;-73
2021/04/07 14:06:13;;;;;;;0.90;0.90;;;8.30;72.30;;;;;;4895851;29;20222;-72
2021/04/07 14:08:40;;;;;;;1.10;1.10;;;8.20;70.80;;;;;;4896226;29;20712;-73
2021/04/07 14:11:08;;;;;;;1.20;1.20;;;8.20;72.50;;;;;;4896339;29;20211;-74
2021/04/07 14:13:37;;;;;;;1.00;1.00;;;8.10;73.50;;;;;;4895916;29;20214;-74
2021/04/07 14:16:06;;;;;;;1.00;1.00;;;7.90;73.30;;;;;;4895817;29;20382;-74
2021/04/07 14:18:33;;;;;;;1.00;1.00;;;8.20;72.90;;;;;;4895998;29;20345;-74
2021/04/07 14:21:00;;;;;;;1.00;1.00;;;8.40;72.10;;;;;;4896054;29;20699;-74
2021/04/07 14:23:31;;;;;;;1.20;1.20;;;8.30;71.20;;;;;;4895930;29;20282;-74
2021/04/07 14:25:58;;;;;;;1.10;1.10;;;8.20;72.70;;;;;;4896079;29;20246;-74
2021/04/07 14:28:25;;;;;;;1.30;1.30;;;8.20;72.90;;;;;;4896139;29;20294;-73
2021/04/07 14:30:52;;;;;;;1.33;1.33;;;8.00;72.90;;;;;;4896741;29;20292;-74
2021/04/07 14:33:21;;;;;;;1.00;1.00;;;7.70;73.40;;;;;;4895843;29;20213;-74
2021/04/07 14:35:49;;;;;;;1.23;1.23;;;7.50;74.20;;;;;;4896124;29;20263;-74
2021/04/07 14:38:18;;;;;;;1.10;1.10;;;7.50;76.00;;;;;;4895853;29;20234;-74
2021/04/07 14:40:46;;;;;;;1.20;1.20;;;7.40;78.00;;;;;;4897449;29;20207;-74
2021/04/07 14:43:13;;;;;;;0.93;0.93;;;7.20;81.60;;;;;;4899961;29;20378;-74
2021/04/07 14:45:44;;;;;;;1.20;1.20;;;7.10;82.30;;;;;;4899080;29;20231;-74
2021/04/07 14:48:12;;;;;;;1.03;1.03;;;7.10;82.10;;;;;;4899750;29;20687;-73
2021/04/07 14:50:42;;;;;;;1.00;1.00;;;6.90;83.40;;;;;;4899529;29;20632;-74
2021/04/07 14:53:16;;;;;;;1.20;1.20;;;7.20;86.10;;;;;;4899456;29;20211;-74
2021/04/07 14:55:43;;;;;;;0.90;0.90;;;7.40;84.90;;;;;;4899340;29;20713;-74
2021/04/07 14:58:11;;;;;;;1.30;1.30;;;7.30;84.80;;;;;;4897167;29;20223;-74
2021/04/07 15:00:38;;;;;;;1.20;1.20;;;7.30;85.40;;;;;;4905341;29;20628;-76
2021/04/07 15:03:05;;;;;;;1.37;1.37;;;7.30;87.60;;;;;;4903982;29;20799;-76
2021/04/07 15:05:32;;;;;;;1.20;1.20;;;7.50;87.40;;;;;;4906628;29;20623;-73
2021/04/07 15:07:59;;;;;;;1.03;1.03;;;7.40;87.10;;;;;;4908739;29;20199;-78
2021/04/07 15:10:27;;;;;;;1.40;1.40;;;7.90;85.60;;;;;;4916188;29;20270;-75
2021/04/07 15:12:54;;;;;;;1.37;1.37;;;7.20;86.50;;;;;;4901565;29;20613;-75
2021/04/07 15:15:22;;;;;;;1.00;1.00;;;7.00;87.80;;;;;;4905470;29;20594;-75
2021/04/07 15:17:49;;;;;;;1.27;1.27;;;6.90;88.10;;;;;;4916387;29;20227;-74
2021/04/07 15:20:19;;;;;;;1.30;1.30;;;6.80;89.30;;;;;;4917755;29;20207;-75
2021/04/07 15:22:46;;;;;;;0.90;0.90;;;6.90;99.90;;;;;;4916667;29;20445;-78
2021/04/07 15:25:16;;;;;;;1.10;1.10;;;7.20;99.90;;;;;;4917755;29;20214;-76
2021/04/07 15:27:48;;;;;;;1.30;1.30;;;7.10;88.00;;;;;;4918187;29;20213;-76
2021/04/07 15:30:17;;;;;;;1.20;1.20;;;7.10;86.60;;;;;;4917584;29;20305;-76
2021/04/07 15:32:45;;;;;;;1.20;1.20;;;7.30;85.80;;;;;;4917819;29;20211;-75
2021/04/07 15:35:12;;;;;;;0.97;0.97;;;7.00;99.90;;;;;;4915442;29;20246;-75
2021/04/07 15:37:39;;;;;;;1.33;1.33;;;7.00;85.80;;;;;;4898274;29;20267;-74
2021/04/07 15:40:08;;;;;;;1.10;1.10;;;6.90;86.60;;;;;;4897763;29;20232;-75
2021/04/07 15:42:35;;;;;;;1.30;1.30;;;6.90;87.40;;;;;;4898146;29;20256;-75
2021/04/07 15:45:02;;;;;;;1.30;1.30;;;7.10;99.90;;;;;;4897955;29;20206;-74
2021/04/07 15:47:29;;;;;;;1.30;1.30;;;7.10;86.80;;;;;;4898374;29;20195;-75
2021/04/07 15:49:56;;;;;;;1.40;1.40;;;7.10;88.40;;;;;;4898174;29;20257;-75
2021/04/07 15:52:26;;;;;;;1.20;1.20;;;6.80;88.90;;;;;;4898168;29;20211;-74
2021/04/07 15:54:53;;;;;;;1.10;1.10;;;6.60;89.10;;;;;;4898293;29;20665;-74
2021/04/07 15:57:26;;;;;;;1.20;1.20;;;6.70;89.10;;;;;;4898292;29;20235;-74
2021/04/07 15:59:59;;;;;;;1.20;1.20;;;6.60;88.20;;;;;;4898148;29;20203;-74
2021/04/07 16:02:27;;;;;;;1.50;1.50;;;6.60;88.80;;;;;;4897901;29;20204;-74
2021/04/07 16:04:54;;;;;;;1.33;1.33;;;6.70;90.00;;;;;;4896899;29;20692;-76
2021/04/07 16:07:21;;;;;;;1.10;1.10;;;6.60;89.50;;;;;;4897663;29;20637;-76
2021/04/07 16:09:48;;;;;;;1.33;1.33;;;6.80;89.00;;;;;;4897334;29;20211;-77
2021/04/07 16:12:16;;;;;;;1.30;1.30;;;6.70;88.60;;;;;;4897809;29;20688;-76
2021/04/07 16:14:43;;;;;;;1.30;1.30;;;6.80;88.80;;;;;;4897939;29;20240;-76
2021/04/07 16:17:10;;;;;;;1.20;1.20;;;6.70;89.90;;;;;;4898030;29;20279;-76
2021/04/07 16:19:39;;;;;;;1.30;1.30;;;6.60;90.00;;;;;;4897722;29;20579;-75
2021/04/07 16:22:07;;;;;;;1.30;1.30;;;6.70;90.40;;;;;;4897908;29;20634;-76
2021/04/07 16:24:36;;;;;;;1.20;1.20;;;6.70;90.00;;;;;;4897730;29;20237;-76
2021/04/07 16:27:03;;;;;;;1.30;1.30;;;6.90;89.60;;;;;;4926000;23;20262;-76
2021/04/07 16:29:30;;;;;;;1.17;1.17;;;6.80;90.10;;;;;;4919325;29;20225;-76
2021/04/07 16:31:57;;;;;;;1.20;1.20;;;6.80;90.50;;;;;;4913965;29;20200;-75
2021/04/07 16:34:25;;;;;;;1.10;1.10;;;6.60;90.90;;;;;;4901597;29;20304;-74
2021/04/07 16:36:52;;;;;;;1.30;1.30;;;6.40;91.10;;;;;;4912640;29;20223;-76
2021/04/07 16:39:19;;;;;;;1.30;1.30;;;6.60;91.30;;;;;;4911132;29;20644;-75
2021/04/07 16:41:46;;;;;;;1.23;1.23;;;6.60;91.20;;;;;;4908324;29;20199;-75
2021/04/07 16:44:13;;;;;;;1.40;1.40;;;6.60;91.40;;;;;;4916205;29;20683;-75
2021/04/07 16:46:40;;;;;;;1.33;1.33;;;6.70;91.20;;;;;;4916093;29;20377;-77
2021/04/07 16:49:09;;;;;;;1.20;1.20;;;6.60;91.40;;;;;;4916507;29;20206;-75
2021/04/07 16:51:37;;;;;;;1.47;1.47;;;6.40;91.90;;;;;;4909273;29;20610;-75
2021/04/07 16:54:05;;;;;;;1.30;1.30;;;6.30;92.50;;;;;;4912472;29;20735;-77
2021/04/07 16:56:31;;;;;;;1.20;1.20;;;6.00;92.90;;;;;;4919110;29;20230;-76
2021/04/07 16:59:00;;;;;;;1.50;1.50;;;5.90;93.70;;;;;;4916839;29;20581;-77
2021/04/07 17:01:27;;;;;;;1.50;1.50;;;5.80;94.40;;;;;;4908284;29;20345;-76
2021/04/07 17:03:54;;;;;;;1.30;1.30;;;5.60;94.90;;;;;;4916242;29;20234;-77
2021/04/07 17:06:20;;;;;;;1.10;1.10;;;5.50;95.80;;;;;;4915985;29;20234;-78
2021/04/07 17:08:48;;;;;;;1.40;1.40;;;5.50;96.00;;;;;;4909576;29;20688;-77
2021/04/07 17:11:16;;;;;;;1.60;1.60;;;5.40;96.90;;;;;;4906858;29;20608;-77
2021/04/07 17:13:42;;;;;;;1.40;1.40;;;5.40;97.40;;;;;;4911156;29;20199;-77
2021/04/07 17:16:11;;;;;;;1.40;1.40;;;5.30;97.30;;;;;;4918738;29;20286;-75
2021/04/07 17:18:37;;;;;;;1.27;1.27;;;5.30;97.00;;;;;;4919992;29;20286;-77